Szeged, Szeged Airport (LHUD)

NameSzeged Airport
CitySzeged
CountryHungary
ICAOLHUD
IATAQZD
Altitude80 m
CoordinatesGoogle Map
Live Air TrafficLiveATC.net
METARLHUD 172045Z 18007KT CAVOK 03/M00 Q1013
2019-01-17 20:45:00 Wind: South (180°) 3.6 m/s - Visibility: > 10000 m - Weather: CAVOK - Temperature: 3 °C - Dew point: -0 °C - Humidity: 80.9% - Pressure: 1013 hPa
Statistics

The table below shows the detailed information of all flights to/from Szeged, Szeged Airport (LHUD).

Ident Aircraft Coming fromFrom Going toTo Owner nameOwnerSpotted durationDurationDate
HA-BIC - S22T - Not Available Not Available HABIC CIRRUS SR-22T S22T Per, Hungary (LHPR) LHPR
139 km
Szeged, Hungary (LHUD) LHUD
107 km
- - - - Tue, 11 Dec 2018 15:54:07 +0000 11/12/2018 3:54 pm
HA-BIC - S22T - Not Available Not Available HABIC CIRRUS SR-22T S22T Per, Hungary (LHPR) LHPR
344 km
Szeged, Hungary (LHUD) LHUD
142 km
- - - - Tue, 11 Dec 2018 15:10:05 +0000 11/12/2018 3:10 pm
HA-BIC - S22T - Not Available Not Available HABIC CIRRUS SR-22T S22T Per, Hungary (LHPR) LHPR
157 km
Szeged, Hungary (LHUD) LHUD
108 km
- - 00:20:41 00:20:41 Tue, 11 Dec 2018 08:32:06 +0000 11/12/2018 8:32 am
Tue, 11 Dec 2018 08:52:47 +0000 11/12/2018 8:52 am
HA-BIC - S22T - Not Available Not Available HABIC CIRRUS SR-22T S22T Per, Hungary (LHPR) LHPR
10 km
Szeged, Hungary (LHUD) LHUD
221 km
- - - - Mon, 19 Nov 2018 13:28:53 +0000 19/11/2018 1:28 pm